createdAt,value
2022-09-11T00:00:57.261Z,0.00
2022-09-11T00:01:57.266Z,0.00
2022-09-11T00:02:57.266Z,0.00
2022-09-11T00:03:57.206Z,0.00
2022-09-11T00:04:57.205Z,0.00
2022-09-11T00:05:57.225Z,0.00
2022-09-11T00:06:57.183Z,0.00
2022-09-11T00:07:57.167Z,0.00
2022-09-11T00:08:57.157Z,0.00
2022-09-11T00:09:57.160Z,0.00
2022-09-11T00:10:57.145Z,0.00
2022-09-11T00:11:57.143Z,0.00
2022-09-11T00:12:57.111Z,0.00
2022-09-11T00:13:57.095Z,0.00
2022-09-11T00:14:57.088Z,0.00
2022-09-11T00:15:57.116Z,0.00
2022-09-11T00:16:57.067Z,0.00
2022-09-11T00:17:57.062Z,0.00
2022-09-11T00:18:57.046Z,0.00
2022-09-11T00:19:57.032Z,0.00
2022-09-11T00:20:57.037Z,0.00
2022-09-11T00:21:57.037Z,0.00
2022-09-11T00:22:57.007Z,0.00
2022-09-11T00:23:56.992Z,0.00
2022-09-11T00:24:56.980Z,0.00
2022-09-11T00:25:57.095Z,0.00
2022-09-11T00:26:56.955Z,0.00
2022-09-11T00:27:56.940Z,0.00
2022-09-11T00:28:56.934Z,0.00
2022-09-11T00:29:56.917Z,0.00
2022-09-11T00:30:56.974Z,0.00
2022-09-11T00:31:56.908Z,0.00
2022-09-11T00:32:56.890Z,0.00
2022-09-11T00:33:56.874Z,0.00
2022-09-11T00:34:56.867Z,0.00
2022-09-11T00:35:56.864Z,0.00
2022-09-11T00:36:56.846Z,0.00
2022-09-11T00:37:56.851Z,0.00
2022-09-11T00:38:56.825Z,0.00
2022-09-11T00:39:56.862Z,0.00
2022-09-11T00:40:56.802Z,0.00
2022-09-11T00:41:56.800Z,0.00
2022-09-11T00:42:56.780Z,0.00
2022-09-11T00:43:56.767Z,0.00
2022-09-11T00:44:56.755Z,0.00
2022-09-11T00:46:04.356Z,0.00
2022-09-11T00:46:56.745Z,0.00
2022-09-11T00:47:56.722Z,0.00
2022-09-11T00:48:56.710Z,0.00
2022-09-11T00:49:56.696Z,0.00
2022-09-11T00:50:56.689Z,0.00
2022-09-11T00:51:56.685Z,0.00
2022-09-11T00:52:56.673Z,0.00
2022-09-11T00:53:56.673Z,0.00
2022-09-11T00:54:56.649Z,0.00
2022-09-11T00:55:56.640Z,0.00
2022-09-11T00:56:56.634Z,0.00
2022-09-11T00:57:56.609Z,0.00
2022-09-11T00:58:56.612Z,0.00
2022-09-11T00:59:56.585Z,0.00
2022-09-11T01:00:56.692Z,0.00
2022-09-11T01:01:56.619Z,0.00
2022-09-11T01:02:56.556Z,0.00
2022-09-11T01:03:56.541Z,0.00
2022-09-11T01:04:56.533Z,0.00
2022-09-11T01:05:56.533Z,0.00
2022-09-11T01:06:56.514Z,0.00
2022-09-11T01:07:56.499Z,0.00
2022-09-11T01:08:56.492Z,0.00
2022-09-11T01:09:56.493Z,0.00
2022-09-11T01:10:56.478Z,0.00
2022-09-11T01:11:56.452Z,0.00
2022-09-11T01:12:56.445Z,0.00
2022-09-11T01:13:56.433Z,0.00
2022-09-11T01:14:56.423Z,0.00
2022-09-11T01:15:56.491Z,0.00
2022-09-11T01:16:56.420Z,0.00
2022-09-11T01:17:56.397Z,0.00
2022-09-11T01:18:56.380Z,0.00
2022-09-11T01:19:56.362Z,0.00
2022-09-11T01:20:56.355Z,0.00
2022-09-11T01:21:56.341Z,0.00
2022-09-11T01:22:56.345Z,0.00
2022-09-11T01:23:56.321Z,0.00
2022-09-11T01:24:56.315Z,0.00
2022-09-11T01:25:56.329Z,0.00
2022-09-11T01:26:56.290Z,0.00
2022-09-11T01:27:56.294Z,0.00
2022-09-11T01:28:56.284Z,0.00
2022-09-11T01:29:56.253Z,0.00
2022-09-11T01:30:56.256Z,0.00
2022-09-11T01:31:56.244Z,0.00
2022-09-11T01:32:56.224Z,0.00
2022-09-11T01:33:56.208Z,0.00
2022-09-11T01:34:56.202Z,0.00
2022-09-11T01:35:56.185Z,0.00
2022-09-11T01:36:56.189Z,0.00
2022-09-11T01:37:56.176Z,0.00
2022-09-11T01:38:56.152Z,0.00
2022-09-11T01:39:56.201Z,0.00
2022-09-11T01:40:56.145Z,0.00
2022-09-11T01:41:56.144Z,0.00
2022-09-11T01:42:56.114Z,0.00
2022-09-11T01:43:56.103Z,0.00
2022-09-11T01:44:56.089Z,0.00
2022-09-11T01:45:56.156Z,0.00
2022-09-11T01:46:56.064Z,0.00
2022-09-11T01:47:56.068Z,0.00
2022-09-11T01:48:56.048Z,0.00
2022-09-11T01:49:56.039Z,0.00
2022-09-11T01:50:56.021Z,0.00
2022-09-11T01:51:56.017Z,0.00
2022-09-11T01:52:56.011Z,0.00
2022-09-11T01:53:55.990Z,0.00
2022-09-11T01:54:56.601Z,0.00
2022-09-11T01:55:55.969Z,0.00
2022-09-11T01:56:55.955Z,0.00
2022-09-11T01:57:55.983Z,0.00
2022-09-11T01:58:55.931Z,0.00
2022-09-11T01:59:55.925Z,0.00
2022-09-11T02:00:55.956Z,0.00
2022-09-11T02:01:55.930Z,0.00
2022-09-11T02:02:55.886Z,0.00
2022-09-11T02:03:55.891Z,0.00
2022-09-11T02:04:55.869Z,0.00
2022-09-11T02:05:55.860Z,0.00
2022-09-11T02:06:55.842Z,0.00
2022-09-11T02:07:55.839Z,0.00
2022-09-11T02:08:55.830Z,0.00
2022-09-11T02:09:55.828Z,0.00
2022-09-11T02:10:55.808Z,0.00
2022-09-11T02:11:55.794Z,0.00
2022-09-11T02:12:55.786Z,0.00
2022-09-11T02:13:55.790Z,0.00
2022-09-11T02:14:55.753Z,0.00
2022-09-11T02:15:55.856Z,0.00
2022-09-11T02:16:55.731Z,0.00
2022-09-11T02:17:55.735Z,0.00
2022-09-11T02:18:55.708Z,0.00
2022-09-11T02:19:55.720Z,0.00
2022-09-11T02:20:55.702Z,0.00
2022-09-11T02:21:55.679Z,0.00
2022-09-11T02:22:55.664Z,0.00
2022-09-11T02:23:55.658Z,0.00
2022-09-11T02:24:55.653Z,0.00
2022-09-11T02:25:55.636Z,0.00
2022-09-11T02:26:55.620Z,0.00
2022-09-11T02:27:55.613Z,0.00
2022-09-11T02:28:55.611Z,0.00
2022-09-11T02:29:55.612Z,0.00
2022-09-11T02:30:55.576Z,0.00
2022-09-11T02:31:55.571Z,0.00
2022-09-11T02:32:55.571Z,0.00
2022-09-11T02:33:55.549Z,0.00
2022-09-11T02:34:55.557Z,0.00
2022-09-11T02:35:55.526Z,0.00
2022-09-11T02:36:55.521Z,0.00
2022-09-11T02:37:55.506Z,0.00
2022-09-11T02:38:55.488Z,0.00
2022-09-11T02:39:55.580Z,0.00
2022-09-11T02:40:55.464Z,0.00
2022-09-11T02:41:55.469Z,0.00
2022-09-11T02:42:55.449Z,0.00
2022-09-11T02:43:55.438Z,0.00
2022-09-11T02:44:55.434Z,0.00
2022-09-11T02:45:55.496Z,0.00
2022-09-11T02:47:02.914Z,0.00
2022-09-11T02:47:55.403Z,0.00
2022-09-11T02:48:55.376Z,0.00
2022-09-11T02:49:55.381Z,0.00
2022-09-11T02:50:55.354Z,0.00
2022-09-11T02:51:55.348Z,0.00
2022-09-11T02:52:55.341Z,0.00
2022-09-11T02:53:55.328Z,0.00
2022-09-11T02:54:55.310Z,0.00
2022-09-11T02:55:55.305Z,0.00
2022-09-11T02:56:55.301Z,0.00
2022-09-11T02:57:55.281Z,0.00
2022-09-11T02:58:55.269Z,0.00
2022-09-11T02:59:55.270Z,0.00
2022-09-11T03:00:55.270Z,0.00
2022-09-11T03:01:55.505Z,0.00
2022-09-11T03:02:55.221Z,0.00
2022-09-11T03:03:55.231Z,0.00
2022-09-11T03:04:55.254Z,0.00
2022-09-11T03:05:55.203Z,0.00
2022-09-11T03:06:55.179Z,0.00
2022-09-11T03:07:55.172Z,0.00
2022-09-11T03:08:55.155Z,0.00
2022-09-11T03:09:55.148Z,0.00
2022-09-11T03:10:55.144Z,0.00
2022-09-11T03:11:55.128Z,0.00
2022-09-11T03:12:55.111Z,0.00
2022-09-11T03:13:55.105Z,0.00
2022-09-11T03:14:55.088Z,0.00
2022-09-11T03:15:55.136Z,0.00
2022-09-11T03:16:55.077Z,0.00
2022-09-11T03:17:55.092Z,0.00
2022-09-11T03:18:55.044Z,0.00
2022-09-11T03:19:55.040Z,0.00
2022-09-11T03:20:55.034Z,0.00
2022-09-11T03:21:55.018Z,0.00
2022-09-11T03:22:55.000Z,0.00
2022-09-11T03:23:55.638Z,0.00
2022-09-11T03:24:54.977Z,0.00
2022-09-11T03:25:54.982Z,0.00
2022-09-11T03:26:54.960Z,0.00
2022-09-11T03:27:54.961Z,0.00
2022-09-11T03:28:54.947Z,0.00
2022-09-11T03:29:54.926Z,0.00
2022-09-11T03:30:54.928Z,0.00
2022-09-11T03:31:54.943Z,0.00
2022-09-11T03:32:54.889Z,0.00
2022-09-11T03:33:54.914Z,0.00
2022-09-11T03:34:54.866Z,0.00
2022-09-11T03:35:54.878Z,0.00
2022-09-11T03:36:54.847Z,0.00
2022-09-11T03:37:54.853Z,0.00
2022-09-11T03:38:54.823Z,0.00
2022-09-11T03:39:54.882Z,0.00
2022-09-11T03:40:54.813Z,0.00
2022-09-11T03:41:54.795Z,0.00
2022-09-11T03:42:54.779Z,0.00
2022-09-11T03:43:54.773Z,0.00
2022-09-11T03:44:54.755Z,0.00
2022-09-11T03:45:54.770Z,0.00
2022-09-11T03:46:54.733Z,0.00
2022-09-11T03:47:54.742Z,0.00
2022-09-11T03:48:54.714Z,0.00
2022-09-11T03:49:54.725Z,0.00
2022-09-11T03:50:54.690Z,0.00
2022-09-11T03:51:54.693Z,0.00
2022-09-11T03:52:54.669Z,0.00
2022-09-11T03:53:54.661Z,0.00
2022-09-11T03:54:54.647Z,0.00
2022-09-11T03:55:54.640Z,0.00
2022-09-11T03:56:54.637Z,0.00
2022-09-11T03:57:54.616Z,0.00
2022-09-11T03:58:54.611Z,0.00
2022-09-11T03:59:54.597Z,0.00
2022-09-11T04:00:54.635Z,0.00
2022-09-11T04:01:54.605Z,0.00
2022-09-11T04:02:54.557Z,0.00
2022-09-11T04:03:54.548Z,0.00
2022-09-11T04:04:54.533Z,0.00
2022-09-11T04:05:54.563Z,0.00
2022-09-11T04:06:54.512Z,0.00
2022-09-11T04:07:54.511Z,0.00
2022-09-11T04:08:54.488Z,0.00
2022-09-11T04:09:54.483Z,0.00
2022-09-11T04:10:54.489Z,0.00
2022-09-11T04:11:54.463Z,0.00
2022-09-11T04:12:54.444Z,0.00
2022-09-11T04:13:54.438Z,0.00
2022-09-11T04:14:54.422Z,0.00
2022-09-11T04:15:54.437Z,0.00
2022-09-11T04:16:54.402Z,0.00
2022-09-11T04:17:54.395Z,0.00
2022-09-11T04:18:54.380Z,0.00
2022-09-11T04:19:54.374Z,0.00
2022-09-11T04:20:54.374Z,0.00
2022-09-11T04:21:54.386Z,0.00
2022-09-11T04:22:54.336Z,0.00
2022-09-11T04:23:54.343Z,0.00
2022-09-11T04:24:54.312Z,0.00
2022-09-11T04:25:54.306Z,0.00
2022-09-11T04:26:58.614Z,0.00
2022-09-11T04:27:55.284Z,0.00
2022-09-11T04:28:54.267Z,0.00
2022-09-11T04:29:54.272Z,0.00
2022-09-11T04:30:54.244Z,4.00
2022-09-11T04:31:54.311Z,4.00
2022-09-11T04:32:54.222Z,4.00
2022-09-11T04:33:57.528Z,4.00
2022-09-11T04:34:54.217Z,4.00
2022-09-11T04:35:54.194Z,4.00
2022-09-11T04:36:54.182Z,8.00
2022-09-11T04:37:54.195Z,4.00
2022-09-11T04:38:54.202Z,8.00
2022-09-11T04:39:54.195Z,8.00
2022-09-11T04:40:54.150Z,8.00
2022-09-11T04:41:54.128Z,12.00
2022-09-11T04:42:54.118Z,12.00
2022-09-11T04:43:54.131Z,12.00
2022-09-11T04:44:54.100Z,16.00
2022-09-11T04:45:54.113Z,16.00
2022-09-11T04:46:54.075Z,20.00
2022-09-11T04:48:01.561Z,20.00
2022-09-11T04:48:54.044Z,24.00
2022-09-11T04:49:54.054Z,28.00
2022-09-11T04:50:54.035Z,32.00
2022-09-11T04:51:54.018Z,36.00
2022-09-11T04:52:54.008Z,40.00
2022-09-11T04:53:54.016Z,40.00
2022-09-11T04:54:53.990Z,44.00
2022-09-11T04:55:53.972Z,48.00
2022-09-11T04:56:53.970Z,52.00
2022-09-11T04:57:53.951Z,52.00
2022-09-11T04:58:53.935Z,56.00
2022-09-11T04:59:53.931Z,60.00
2022-09-11T05:00:53.974Z,64.00
2022-09-11T05:01:53.969Z,72.00
2022-09-11T05:02:53.891Z,76.00
2022-09-11T05:03:53.888Z,84.00
2022-09-11T05:04:53.869Z,92.00
2022-09-11T05:05:53.862Z,96.00
2022-09-11T05:06:53.857Z,100.00
2022-09-11T05:07:53.842Z,108.00
2022-09-11T05:08:53.825Z,112.00
2022-09-11T05:09:53.865Z,120.00
2022-09-11T05:10:53.804Z,120.00
2022-09-11T05:11:53.814Z,124.00
2022-09-11T05:12:53.803Z,128.00
2022-09-11T05:13:53.775Z,136.00
2022-09-11T05:14:53.757Z,144.00
2022-09-11T05:15:53.754Z,148.00
2022-09-11T05:16:53.747Z,160.00
2022-09-11T05:17:53.730Z,164.00
2022-09-11T05:18:53.726Z,168.00
2022-09-11T05:19:53.719Z,176.00
2022-09-11T05:20:53.694Z,184.00
2022-09-11T05:21:53.686Z,192.00
2022-09-11T05:22:53.687Z,208.00
2022-09-11T05:23:53.665Z,220.00
2022-09-11T05:24:53.647Z,236.00
2022-09-11T05:25:53.662Z,240.00
2022-09-11T05:26:53.626Z,244.00
2022-09-11T05:27:53.630Z,252.00
2022-09-11T05:28:53.624Z,260.00
2022-09-11T05:29:53.597Z,272.00
2022-09-11T05:30:53.581Z,280.00
2022-09-11T05:31:53.635Z,296.00
2022-09-11T05:32:53.589Z,320.00
2022-09-11T05:33:53.561Z,340.00
2022-09-11T05:34:53.537Z,364.00
2022-09-11T05:35:53.543Z,392.00
2022-09-11T05:36:53.515Z,432.00
2022-09-11T05:37:53.508Z,464.00
2022-09-11T05:38:53.493Z,488.00
2022-09-11T05:39:53.578Z,512.00
2022-09-11T05:40:53.484Z,532.00
2022-09-11T05:41:53.485Z,544.00
2022-09-11T05:42:53.451Z,544.00
2022-09-11T05:43:53.456Z,536.00
2022-09-11T05:44:53.425Z,556.00
2022-09-11T05:45:53.482Z,588.00
2022-09-11T05:46:53.404Z,636.00
2022-09-11T05:47:55.956Z,684.00
2022-09-11T05:48:53.382Z,756.00
2022-09-11T05:49:53.377Z,864.00
2022-09-11T05:50:53.376Z,916.00
2022-09-11T05:51:53.351Z,1008.00
2022-09-11T05:52:53.346Z,1096.00
2022-09-11T05:53:53.339Z,1152.00
2022-09-11T05:54:53.320Z,1220.00
2022-09-11T05:55:53.316Z,1340.00
2022-09-11T05:56:53.298Z,1420.00
2022-09-11T05:57:53.304Z,1472.00
2022-09-11T05:58:53.284Z,1452.00
2022-09-11T05:59:53.259Z,1412.00
2022-09-11T06:00:53.326Z,1344.00
2022-09-11T06:01:53.263Z,1144.00
2022-09-11T06:02:53.245Z,952.00
2022-09-11T06:03:53.221Z,924.00
2022-09-11T06:04:53.211Z,960.00
2022-09-11T06:05:53.205Z,1004.00
2022-09-11T06:06:53.199Z,1004.00
2022-09-11T06:07:53.187Z,1016.00
2022-09-11T06:08:53.168Z,972.00
2022-09-11T06:09:53.150Z,940.00
2022-09-11T06:10:53.144Z,872.00
2022-09-11T06:11:53.128Z,908.00
2022-09-11T06:12:53.121Z,988.00
2022-09-11T06:13:53.140Z,1044.00
2022-09-11T06:14:53.100Z,1028.00
2022-09-11T06:15:53.083Z,1084.00
2022-09-11T06:16:53.150Z,1200.00
2022-09-11T06:17:53.065Z,1432.00
2022-09-11T06:18:53.055Z,1540.00
2022-09-11T06:19:53.039Z,1440.00
2022-09-11T06:20:53.033Z,1280.00
2022-09-11T06:21:53.059Z,1268.00
2022-09-11T06:22:53.012Z,1188.00
2022-09-11T06:23:53.007Z,1124.00
2022-09-11T06:24:52.989Z,1232.00
2022-09-11T06:25:52.973Z,1376.00
2022-09-11T06:26:52.968Z,1580.00
2022-09-11T06:27:52.964Z,1672.00
2022-09-11T06:28:52.956Z,1584.00
2022-09-11T06:29:52.949Z,1428.00
2022-09-11T06:30:53.001Z,1196.00
2022-09-11T06:31:52.907Z,1108.00
2022-09-11T06:32:52.902Z,1100.00
2022-09-11T06:33:52.885Z,1124.00
2022-09-11T06:34:52.878Z,1180.00
2022-09-11T06:35:52.862Z,1200.00
2022-09-11T06:36:52.868Z,1208.00
2022-09-11T06:37:52.843Z,1208.00
2022-09-11T06:38:52.840Z,1244.00
2022-09-11T06:39:52.871Z,1280.00
2022-09-11T06:40:52.814Z,1304.00
2022-09-11T06:41:52.810Z,1332.00
2022-09-11T06:42:52.791Z,1312.00
2022-09-11T06:43:52.780Z,1260.00
2022-09-11T06:44:52.768Z,1256.00
2022-09-11T06:45:52.819Z,1300.00
2022-09-11T06:46:52.748Z,1388.00
2022-09-11T06:47:52.742Z,1400.00
2022-09-11T06:49:00.223Z,1388.00
2022-09-11T06:49:52.707Z,1400.00
2022-09-11T06:50:52.702Z,1384.00
2022-09-11T06:51:52.705Z,1368.00
2022-09-11T06:52:52.679Z,1340.00
2022-09-11T06:53:52.663Z,1276.00
2022-09-11T06:54:52.766Z,1356.00
2022-09-11T06:55:52.642Z,1520.00
2022-09-11T06:56:52.647Z,1580.00
2022-09-11T06:57:52.622Z,1496.00
2022-09-11T06:58:52.616Z,1524.00
2022-09-11T06:59:52.733Z,1532.00
2022-09-11T07:00:52.644Z,1508.00
2022-09-11T07:01:52.736Z,1460.00
2022-09-11T07:02:52.570Z,1452.00
2022-09-11T07:03:52.565Z,1412.00
2022-09-11T07:04:52.547Z,1364.00
2022-09-11T07:05:52.531Z,1436.00
2022-09-11T07:06:52.525Z,1380.00
2022-09-11T07:07:52.512Z,1268.00
2022-09-11T07:08:52.516Z,1204.00
2022-09-11T07:09:52.493Z,1188.00
2022-09-11T07:10:52.480Z,1256.00
2022-09-11T07:11:52.464Z,1308.00
2022-09-11T07:12:52.470Z,1388.00
2022-09-11T07:13:52.462Z,1432.00
2022-09-11T07:14:52.436Z,1476.00
2022-09-11T07:15:52.421Z,1632.00
2022-09-11T07:16:52.444Z,1764.00
2022-09-11T07:17:52.424Z,1760.00
2022-09-11T07:18:52.392Z,1712.00
2022-09-11T07:19:52.464Z,1652.00
2022-09-11T07:20:52.370Z,1604.00
2022-09-11T07:21:52.362Z,1652.00
2022-09-11T07:22:52.352Z,1732.00
2022-09-11T07:23:52.333Z,1752.00
2022-09-11T07:24:52.401Z,1840.00
2022-09-11T07:25:52.322Z,1988.00
2022-09-11T07:26:52.346Z,2096.00
2022-09-11T07:27:52.288Z,2248.00
2022-09-11T07:28:52.281Z,2492.00
2022-09-11T07:29:52.347Z,2692.00
2022-09-11T07:30:52.299Z,2900.00
2022-09-11T07:31:52.243Z,3032.00
2022-09-11T07:32:52.240Z,3092.00
2022-09-11T07:33:52.241Z,3084.00
2022-09-11T07:34:52.225Z,3132.00
2022-09-11T07:35:52.216Z,3184.00
2022-09-11T07:36:52.204Z,3156.00
2022-09-11T07:37:52.177Z,3268.00
2022-09-11T07:38:52.171Z,3340.00
2022-09-11T07:39:52.321Z,3360.00
2022-09-11T07:40:52.160Z,3408.00
2022-09-11T07:41:52.133Z,3508.00
2022-09-11T07:42:52.125Z,3624.00
2022-09-11T07:43:52.137Z,3604.00
2022-09-11T07:44:52.101Z,3588.00
2022-09-11T07:45:52.107Z,3792.00
2022-09-11T07:46:52.080Z,4088.00
2022-09-11T07:47:52.084Z,4176.00
2022-09-11T07:48:52.058Z,4160.00
2022-09-11T07:49:52.074Z,4188.00
2022-09-11T07:50:52.052Z,4120.00
2022-09-11T07:51:52.035Z,4028.00
2022-09-11T07:52:52.013Z,3824.00
2022-09-11T07:53:52.037Z,3668.00
2022-09-11T07:54:51.991Z,3736.00
2022-09-11T07:55:51.978Z,3744.00
2022-09-11T07:56:51.979Z,3668.00
2022-09-11T07:57:51.950Z,3644.00
2022-09-11T07:58:51.945Z,3764.00
2022-09-11T07:59:52.026Z,3948.00
2022-09-11T08:00:51.980Z,4184.00
2022-09-11T08:01:51.917Z,4316.00
2022-09-11T08:02:51.901Z,4296.00
2022-09-11T08:03:51.896Z,4220.00
2022-09-11T08:04:51.933Z,4012.00
2022-09-11T08:05:51.881Z,3764.00
2022-09-11T08:06:51.854Z,3668.00
2022-09-11T08:07:51.839Z,3728.00
2022-09-11T08:08:51.844Z,3776.00
2022-09-11T08:10:10.160Z,3816.00
2022-09-11T08:10:52.808Z,3836.00
2022-09-11T08:11:51.797Z,3796.00
2022-09-11T08:12:51.800Z,3764.00
2022-09-11T08:13:51.773Z,3708.00
2022-09-11T08:14:51.765Z,3708.00
2022-09-11T08:15:51.748Z,3724.00
2022-09-11T08:16:51.801Z,3800.00
2022-09-11T08:17:51.729Z,3972.00
2022-09-11T08:18:51.720Z,4192.00
2022-09-11T08:19:51.718Z,4556.00
2022-09-11T08:20:51.708Z,5048.00
2022-09-11T08:21:51.710Z,5720.00
2022-09-11T08:22:51.674Z,6388.00
2022-09-11T08:23:51.660Z,6776.00
2022-09-11T08:24:51.752Z,6708.00
2022-09-11T08:25:51.637Z,6444.00
2022-09-11T08:26:51.643Z,6060.00
2022-09-11T08:27:51.615Z,5532.00
2022-09-11T08:28:51.612Z,5216.00
2022-09-11T08:29:51.598Z,5108.00
2022-09-11T08:30:51.739Z,5028.00
2022-09-11T08:31:51.588Z,5072.00
2022-09-11T08:32:51.563Z,5168.00
2022-09-11T08:33:51.547Z,5320.00
2022-09-11T08:34:51.545Z,5668.00
2022-09-11T08:35:51.527Z,5752.00
2022-09-11T08:36:51.535Z,5948.00
2022-09-11T08:37:54.694Z,6168.00
2022-09-11T08:38:51.499Z,6264.00
2022-09-11T08:39:51.555Z,6324.00
2022-09-11T08:40:51.479Z,6596.00
2022-09-11T08:41:51.473Z,7296.00
2022-09-11T08:42:51.454Z,8288.00
2022-09-11T08:43:51.438Z,8644.00
2022-09-11T08:44:51.447Z,7836.00
2022-09-11T08:45:51.423Z,7360.00
2022-09-11T08:46:51.421Z,7268.00
2022-09-11T08:47:51.394Z,7180.00
2022-09-11T08:48:51.388Z,6824.00
2022-09-11T08:49:58.883Z,6084.00
2022-09-11T08:50:51.368Z,5456.00
2022-09-11T08:51:51.348Z,5208.00
2022-09-11T08:52:51.343Z,5120.00
2022-09-11T08:53:51.345Z,5060.00
2022-09-11T08:54:51.330Z,5104.00
2022-09-11T08:55:51.304Z,5124.00
2022-09-11T08:56:51.419Z,5348.00
2022-09-11T08:57:51.283Z,5624.00
2022-09-11T08:58:51.275Z,5888.00
2022-09-11T08:59:51.276Z,6040.00
2022-09-11T09:00:51.455Z,6096.00
2022-09-11T09:01:51.287Z,6016.00
2022-09-11T09:02:51.244Z,6008.00
2022-09-11T09:03:51.217Z,5928.00
2022-09-11T09:04:51.228Z,5852.00
2022-09-11T09:05:51.192Z,5928.00
2022-09-11T09:06:51.190Z,6104.00
2022-09-11T09:07:51.176Z,6156.00
2022-09-11T09:08:51.171Z,6156.00
2022-09-11T09:09:51.189Z,6136.00
2022-09-11T09:10:51.144Z,6136.00
2022-09-11T09:11:51.131Z,6008.00
2022-09-11T09:12:51.145Z,5916.00
2022-09-11T09:13:51.107Z,5908.00
2022-09-11T09:14:51.100Z,5680.00
2022-09-11T09:15:51.138Z,5544.00
2022-09-11T09:16:51.077Z,5420.00
2022-09-11T09:17:51.074Z,5348.00
2022-09-11T09:18:51.054Z,5312.00
2022-09-11T09:19:51.040Z,5320.00
2022-09-11T09:20:51.035Z,5272.00
2022-09-11T09:21:51.020Z,5188.00
2022-09-11T09:22:51.021Z,5164.00
2022-09-11T09:23:50.999Z,4980.00
2022-09-11T09:24:51.001Z,4728.00
2022-09-11T09:25:50.992Z,4568.00
2022-09-11T09:26:50.979Z,4496.00
2022-09-11T09:27:50.955Z,4444.00
2022-09-11T09:28:50.951Z,4444.00
2022-09-11T09:29:50.928Z,4444.00
2022-09-11T09:30:51.002Z,4476.00
2022-09-11T09:31:50.906Z,4484.00
2022-09-11T09:32:50.910Z,4460.00
2022-09-11T09:33:50.883Z,4472.00
2022-09-11T09:34:50.878Z,4568.00
2022-09-11T09:35:50.862Z,4764.00
2022-09-11T09:36:50.854Z,4908.00
2022-09-11T09:37:50.852Z,4964.00
2022-09-11T09:38:50.833Z,4984.00
2022-09-11T09:39:50.834Z,5052.00
2022-09-11T09:40:50.820Z,5136.00
2022-09-11T09:41:50.815Z,5188.00
2022-09-11T09:42:50.800Z,5200.00
2022-09-11T09:43:50.772Z,5192.00
2022-09-11T09:44:50.768Z,5152.00
2022-09-11T09:45:50.790Z,5116.00
2022-09-11T09:46:51.291Z,5060.00
2022-09-11T09:47:50.743Z,4948.00
2022-09-11T09:48:50.722Z,4816.00
2022-09-11T09:49:50.708Z,4688.00
2022-09-11T09:50:50.700Z,4568.00
2022-09-11T09:51:50.686Z,4444.00
2022-09-11T09:52:50.693Z,4292.00
2022-09-11T09:53:50.665Z,4120.00
2022-09-11T09:54:50.670Z,3996.00
2022-09-11T09:55:50.641Z,3948.00
2022-09-11T09:56:50.635Z,3940.00
2022-09-11T09:57:50.649Z,3876.00
2022-09-11T09:58:50.613Z,3820.00
2022-09-11T09:59:50.639Z,3804.00
2022-09-11T10:00:50.590Z,3792.00
2022-09-11T10:01:50.670Z,3812.00
2022-09-11T10:02:50.575Z,3828.00
2022-09-11T10:03:50.557Z,3800.00
2022-09-11T10:04:50.541Z,3756.00
2022-09-11T10:05:50.540Z,3720.00
2022-09-11T10:06:50.519Z,3644.00
2022-09-11T10:07:50.526Z,3544.00
2022-09-11T10:08:50.496Z,3424.00
2022-09-11T10:09:50.501Z,3264.00
2022-09-11T10:10:50.475Z,3072.00
2022-09-11T10:11:50.468Z,2860.00
2022-09-11T10:12:50.452Z,2692.00
2022-09-11T10:13:50.469Z,2572.00
2022-09-11T10:14:52.220Z,2512.00
2022-09-11T10:15:50.562Z,2492.00
2022-09-11T10:16:50.419Z,2516.00
2022-09-11T10:17:50.409Z,2564.00
2022-09-11T10:18:50.392Z,2644.00
2022-09-11T10:19:50.381Z,2776.00
2022-09-11T10:20:50.367Z,2948.00
2022-09-11T10:21:50.377Z,3124.00
2022-09-11T10:22:50.384Z,3280.00
2022-09-11T10:23:50.338Z,3372.00
2022-09-11T10:24:50.323Z,3424.00
2022-09-11T10:25:51.301Z,3468.00
2022-09-11T10:26:50.311Z,3516.00
2022-09-11T10:27:50.293Z,3592.00
2022-09-11T10:28:50.278Z,3692.00
2022-09-11T10:29:50.299Z,3864.00
2022-09-11T10:30:50.295Z,4128.00
2022-09-11T10:31:50.262Z,4372.00
2022-09-11T10:32:50.247Z,4600.00
2022-09-11T10:33:50.227Z,4812.00
2022-09-11T10:34:50.210Z,4992.00
2022-09-11T10:35:50.214Z,5144.00
2022-09-11T10:36:50.188Z,5264.00
2022-09-11T10:37:50.183Z,5380.00
2022-09-11T10:38:50.168Z,5496.00
2022-09-11T10:39:50.243Z,5600.00
2022-09-11T10:40:50.159Z,5688.00
2022-09-11T10:41:50.140Z,5728.00
2022-09-11T10:42:50.135Z,5768.00
2022-09-11T10:43:50.130Z,5848.00
2022-09-11T10:44:50.098Z,5992.00
2022-09-11T10:45:50.155Z,6180.00
2022-09-11T10:46:50.081Z,6396.00
2022-09-11T10:47:50.082Z,6576.00
2022-09-11T10:48:50.056Z,6704.00
2022-09-11T10:49:50.048Z,6768.00
2022-09-11T10:50:57.541Z,6796.00
2022-09-11T10:51:50.037Z,6756.00
2022-09-11T10:52:50.009Z,6708.00
2022-09-11T10:53:50.003Z,6764.00
2022-09-11T10:54:50.002Z,6836.00
2022-09-11T10:55:49.988Z,6964.00
2022-09-11T10:56:49.966Z,7092.00
2022-09-11T10:57:49.971Z,7196.00
2022-09-11T10:58:54.419Z,7244.00
2022-09-11T10:59:49.941Z,7268.00
2022-09-11T11:00:49.924Z,7372.00
2022-09-11T11:01:50.080Z,7456.00
2022-09-11T11:02:49.907Z,7524.00
2022-09-11T11:03:49.906Z,7648.00
2022-09-11T11:04:49.885Z,7880.00
2022-09-11T11:05:49.875Z,8296.00
2022-09-11T11:06:49.868Z,8836.00
2022-09-11T11:07:49.850Z,9500.00
2022-09-11T11:08:49.836Z,10436.00
2022-09-11T11:09:49.846Z,11584.00
2022-09-11T11:10:49.811Z,13412.00
2022-09-11T11:11:49.806Z,19200.00
2022-09-11T11:12:49.801Z,20320.00
2022-09-11T11:13:49.800Z,18432.00
2022-09-11T11:14:49.767Z,20832.00
2022-09-11T11:15:49.825Z,26016.00
2022-09-11T11:16:49.747Z,26752.00
2022-09-11T11:17:49.758Z,27200.00
2022-09-11T11:18:49.721Z,25312.00
2022-09-11T11:19:49.718Z,24256.00
2022-09-11T11:20:49.714Z,23520.00
2022-09-11T11:21:49.695Z,22624.00
2022-09-11T11:22:49.679Z,22528.00
2022-09-11T11:23:49.672Z,26016.00
2022-09-11T11:24:49.655Z,24960.00
2022-09-11T11:25:49.662Z,27872.00
2022-09-11T11:26:49.633Z,26176.00
2022-09-11T11:27:49.627Z,26400.00
2022-09-11T11:28:49.612Z,23840.00
2022-09-11T11:29:49.605Z,22688.00
2022-09-11T11:30:49.661Z,22752.00
2022-09-11T11:31:49.595Z,26688.00
2022-09-11T11:32:49.566Z,27264.00
2022-09-11T11:33:49.592Z,27136.00
2022-09-11T11:34:49.546Z,27584.00
2022-09-11T11:35:49.555Z,27424.00
2022-09-11T11:36:49.522Z,27264.00
2022-09-11T11:37:49.516Z,27456.00
2022-09-11T11:38:49.535Z,27392.00
2022-09-11T11:39:49.583Z,25728.00
2022-09-11T11:40:49.483Z,21216.00
2022-09-11T11:41:49.474Z,18848.00
2022-09-11T11:42:54.024Z,17728.00
2022-09-11T11:43:50.462Z,18176.00
2022-09-11T11:44:49.439Z,19232.00
2022-09-11T11:45:49.463Z,23264.00
2022-09-11T11:46:49.424Z,24672.00
2022-09-11T11:47:49.416Z,23328.00
2022-09-11T11:48:49.399Z,22464.00
2022-09-11T11:49:49.422Z,25280.00
2022-09-11T11:50:49.367Z,25440.00
2022-09-11T11:51:49.362Z,23872.00
2022-09-11T11:52:49.351Z,20384.00
2022-09-11T11:53:49.342Z,19264.00
2022-09-11T11:54:49.336Z,18304.00
2022-09-11T11:55:49.319Z,17440.00
2022-09-11T11:56:49.313Z,17280.00
2022-09-11T11:57:49.295Z,17472.00
2022-09-11T11:58:49.280Z,18144.00
2022-09-11T11:59:49.274Z,19904.00
2022-09-11T12:00:53.399Z,21536.00
2022-09-11T12:01:50.289Z,22496.00
2022-09-11T12:02:49.266Z,23072.00
2022-09-11T12:03:49.285Z,22368.00
2022-09-11T12:04:49.226Z,23872.00
2022-09-11T12:05:49.226Z,22528.00
2022-09-11T12:06:49.191Z,21248.00
2022-09-11T12:07:49.200Z,20160.00
2022-09-11T12:08:49.170Z,18752.00
2022-09-11T12:09:49.163Z,18304.00
2022-09-11T12:10:49.160Z,18400.00
2022-09-11T12:11:49.152Z,19008.00
2022-09-11T12:12:49.136Z,22048.00
2022-09-11T12:13:49.123Z,20000.00
2022-09-11T12:14:49.103Z,19488.00
2022-09-11T12:15:49.143Z,20192.00
2022-09-11T12:16:49.081Z,21984.00
2022-09-11T12:17:49.075Z,17024.00
2022-09-11T12:18:49.060Z,17152.00
2022-09-11T12:19:49.054Z,15988.00
2022-09-11T12:20:49.051Z,17024.00
2022-09-11T12:21:49.050Z,16380.00
2022-09-11T12:22:49.015Z,15624.00
2022-09-11T12:23:49.008Z,17312.00
2022-09-11T12:24:48.992Z,16672.00
2022-09-11T12:25:48.988Z,16468.00
2022-09-11T12:26:48.983Z,16172.00
2022-09-11T12:27:48.985Z,15204.00
2022-09-11T12:28:48.950Z,13076.00
2022-09-11T12:29:48.958Z,11252.00
2022-09-11T12:30:48.935Z,10300.00
2022-09-11T12:31:48.924Z,10512.00